Cottonwood Airport (P52)
Cottonwood, AZ
Field Elevation: 3562
Lat: 34°43.80N  Long: 112°02.10W
CTAF/Unicom Freq: 122.7000
   
    
Weather Advisories
2020-02-24   20:55 Z
Altimeter 30.10" Hg
Wind 290° @ 12 KT
Gusts 18 KT
Visibility 10 SM
Temperature 17° C (63° F)
Dewpoint -2° C (28° F)
Relative Humidity 28%
Density Altitude --
Condensation Altitude 13,000 feet
Wind and Runways
Indicated Runway = 32
Headwind = 10 kt
Crosswind = 6 kt
History
 
 
 
More Info
NOAA Forecast
 
 
About Us
Belfort Instrument
 
 
FAA Disclaimer: The data displayed is for advisory purposes only and is not to be used for flight planning or operations. For official data, please call (not available) to hear the current automated AWOS voice message.
  METAR P52 242055Z AUTO 29012G18KT 10 SM 17/M02 A3010